createdAt,value
2023-04-22T00:02:06.006Z,70.50
2023-04-22T00:04:34.287Z,70.70
2023-04-22T00:07:01.528Z,70.90
2023-04-22T00:09:29.610Z,70.90
2023-04-22T00:12:09.965Z,71.00
2023-04-22T00:14:37.920Z,71.20
2023-04-22T00:17:05.413Z,71.50
2023-04-22T00:19:42.560Z,71.50
2023-04-22T00:22:10.848Z,72.00
2023-04-22T00:24:38.876Z,71.90
2023-04-22T00:27:08.156Z,71.90
2023-04-22T00:29:35.043Z,72.00
2023-04-22T00:32:01.744Z,72.10
2023-04-22T00:34:28.412Z,72.50
2023-04-22T00:36:55.530Z,72.50
2023-04-22T00:39:22.410Z,72.50
2023-04-22T00:41:50.156Z,72.50
2023-04-22T00:44:18.914Z,72.70
2023-04-22T00:46:46.035Z,72.70
2023-04-22T00:49:15.883Z,72.60
2023-04-22T00:51:42.573Z,72.90
2023-04-22T00:54:12.061Z,73.10
2023-04-22T00:56:42.842Z,73.40
2023-04-22T00:59:10.092Z,73.50
2023-04-22T01:01:37.175Z,73.70
2023-04-22T01:04:04.316Z,73.80
2023-04-22T01:06:31.215Z,74.10
2023-04-22T01:08:59.138Z,74.40
2023-04-22T01:11:25.872Z,74.20
2023-04-22T01:13:52.958Z,74.30
2023-04-22T01:16:22.919Z,75.00
2023-04-22T01:18:50.853Z,75.00
2023-04-22T01:21:18.700Z,75.20
2023-04-22T01:23:46.552Z,75.40
2023-04-22T01:26:13.575Z,75.80
2023-04-22T01:28:41.515Z,75.90
2023-04-22T01:31:09.824Z,76.20
2023-04-22T01:33:36.703Z,76.10
2023-04-22T01:36:05.760Z,75.90
2023-04-22T01:38:34.996Z,76.40
2023-04-22T01:41:02.321Z,76.40
2023-04-22T01:43:30.339Z,76.50
2023-04-22T01:45:57.917Z,76.50
2023-04-22T01:48:24.762Z,76.80
2023-04-22T01:50:51.727Z,76.90
2023-04-22T01:53:18.477Z,77.00
2023-04-22T01:55:45.169Z,77.30
2023-04-22T01:58:11.910Z,77.70
2023-04-22T02:00:38.641Z,77.60
2023-04-22T02:03:05.636Z,78.00
2023-04-22T02:05:32.496Z,77.80
2023-04-22T02:07:59.286Z,77.80
2023-04-22T02:10:25.949Z,77.80
2023-04-22T02:12:52.683Z,78.30
2023-04-22T02:15:20.292Z,78.10
2023-04-22T02:17:50.509Z,78.10
2023-04-22T02:20:20.313Z,78.50
2023-04-22T02:22:50.937Z,78.70
2023-04-22T02:25:21.873Z,79.20
2023-04-22T02:27:48.579Z,79.50
2023-04-22T02:30:15.337Z,79.90
2023-04-22T02:32:42.020Z,80.40
2023-04-22T02:35:16.395Z,80.80
2023-04-22T02:37:43.079Z,80.90
2023-04-22T02:40:10.135Z,81.50
2023-04-22T02:42:37.021Z,81.70
2023-04-22T02:45:04.101Z,81.90
2023-04-22T02:47:30.826Z,82.30
2023-04-22T02:49:57.543Z,82.40
2023-04-22T02:52:24.220Z,82.60
2023-04-22T02:54:50.936Z,82.70
2023-04-22T02:57:17.741Z,82.70
2023-04-22T02:59:45.553Z,82.90
2023-04-22T03:02:12.288Z,83.90
2023-04-22T03:04:40.388Z,83.50
2023-04-22T03:07:09.002Z,84.00
2023-04-22T03:09:36.271Z,84.20
2023-04-22T03:12:04.592Z,84.20
2023-04-22T03:14:34.673Z,84.60
2023-04-22T03:17:02.860Z,84.30
2023-04-22T03:19:30.783Z,85.00
2023-04-22T03:21:57.494Z,85.00
2023-04-22T03:24:24.237Z,85.40
2023-04-22T03:26:50.915Z,85.80
2023-04-22T03:29:18.845Z,85.90
2023-04-22T03:31:45.689Z,86.10
2023-04-22T03:34:12.426Z,86.60
2023-04-22T03:36:39.144Z,86.90
2023-04-22T03:39:05.823Z,87.20
2023-04-22T03:41:32.523Z,87.60
2023-04-22T03:44:01.631Z,87.50
2023-04-22T03:46:28.784Z,88.50
2023-04-22T03:48:55.616Z,89.50
2023-04-22T03:51:22.283Z,89.70
2023-04-22T03:53:50.157Z,90.00
2023-04-22T03:56:20.707Z,89.90
2023-04-22T03:58:48.913Z,90.10
2023-04-22T04:01:28.857Z,90.30
2023-04-22T04:03:57.285Z,90.60
2023-04-22T04:06:26.363Z,90.60
2023-04-22T04:08:54.228Z,90.70
2023-04-22T04:11:22.921Z,90.70
2023-04-22T04:13:49.709Z,91.20
2023-04-22T04:16:16.644Z,91.60
2023-04-22T04:18:43.431Z,91.90
2023-04-22T04:21:10.156Z,91.90
2023-04-22T04:23:36.859Z,92.10
2023-04-22T04:26:03.651Z,92.50
2023-04-22T04:28:30.342Z,92.60
2023-04-22T04:30:57.109Z,92.50
2023-04-22T04:33:23.870Z,92.60
2023-04-22T04:35:53.079Z,93.00
2023-04-22T04:38:21.156Z,93.20
2023-04-22T04:40:48.589Z,93.30
2023-04-22T04:43:16.382Z,93.40
2023-04-22T04:45:48.650Z,93.50
2023-04-22T04:48:19.020Z,93.90
2023-04-22T04:50:46.366Z,94.40
2023-04-22T04:53:20.546Z,94.20
2023-04-22T04:55:48.121Z,94.30
2023-04-22T04:58:17.310Z,94.50
2023-04-22T05:00:43.967Z,94.60
2023-04-22T05:03:10.773Z,94.50
2023-04-22T05:05:37.558Z,94.50
2023-04-22T05:08:04.215Z,94.60
2023-04-22T05:10:31.003Z,94.80
2023-04-22T05:12:57.745Z,95.00
2023-04-22T05:15:24.452Z,95.30
2023-04-22T05:17:51.211Z,95.40
2023-04-22T05:20:19.166Z,95.20
2023-04-22T05:22:45.840Z,95.40
2023-04-22T05:25:14.104Z,95.30
2023-04-22T05:27:42.031Z,95.40
2023-04-22T05:30:09.757Z,95.50
2023-04-22T05:32:37.673Z,95.40
2023-04-22T05:35:04.773Z,95.30
2023-04-22T05:37:32.733Z,95.50
2023-04-22T05:40:01.557Z,95.70
2023-04-22T05:42:32.259Z,95.60
2023-04-22T05:45:01.503Z,95.60
2023-04-22T05:47:30.586Z,95.50
2023-04-22T05:49:57.450Z,95.90
2023-04-22T05:52:24.352Z,95.80
2023-04-22T05:54:51.121Z,96.20
2023-04-22T05:57:17.933Z,96.50
2023-04-22T05:59:44.635Z,96.50
2023-04-22T06:02:11.493Z,96.40
2023-04-22T06:04:38.476Z,96.20
2023-04-22T06:07:05.466Z,96.30
2023-04-22T06:09:32.166Z,96.30
2023-04-22T06:11:59.144Z,96.20
2023-04-22T06:14:25.880Z,96.20
2023-04-22T06:16:52.555Z,96.20
2023-04-22T06:19:20.768Z,96.20
2023-04-22T06:21:48.203Z,96.10
2023-04-22T06:24:18.380Z,96.10
2023-04-22T06:26:46.301Z,96.20
2023-04-22T06:29:13.033Z,96.30
2023-04-22T06:31:39.811Z,96.30
2023-04-22T06:34:06.506Z,96.20
2023-04-22T06:36:33.314Z,96.10
2023-04-22T06:38:59.985Z,96.10
2023-04-22T06:41:26.767Z,95.90
2023-04-22T06:43:53.500Z,96.10
2023-04-22T06:46:20.245Z,96.20
2023-04-22T06:48:47.199Z,96.00
2023-04-22T06:51:15.328Z,96.00
2023-04-22T06:53:42.042Z,96.00
2023-04-22T06:56:09.958Z,95.80
2023-04-22T06:58:36.688Z,95.70
2023-04-22T07:01:04.884Z,95.60
2023-04-22T07:03:31.683Z,95.50
2023-04-22T07:06:02.372Z,95.40
2023-04-22T07:08:30.316Z,95.30
2023-04-22T07:10:57.265Z,95.10
2023-04-22T07:13:24.061Z,95.10
2023-04-22T07:15:50.727Z,94.70
2023-04-22T07:18:17.491Z,94.70
2023-04-22T07:20:44.316Z,94.60
2023-04-22T07:23:11.015Z,94.20
2023-04-22T07:25:37.716Z,94.20
2023-04-22T07:28:04.577Z,93.90
2023-04-22T07:30:31.277Z,93.80
2023-04-22T07:32:57.971Z,93.70
2023-04-22T07:35:24.839Z,93.40
2023-04-22T07:37:51.595Z,93.40
2023-04-22T07:40:19.877Z,93.40
2023-04-22T07:42:47.305Z,93.20
2023-04-22T07:45:17.758Z,93.10
2023-04-22T07:47:46.184Z,93.20
2023-04-22T07:50:20.461Z,93.00
2023-04-22T07:52:48.552Z,92.80
2023-04-22T07:55:15.388Z,92.80
2023-04-22T07:57:44.726Z,92.70
2023-04-22T08:00:11.991Z,92.70
2023-04-22T08:02:38.863Z,92.60
2023-04-22T08:05:06.354Z,92.60
2023-04-22T08:07:33.734Z,92.50
2023-04-22T08:10:00.765Z,92.50
2023-04-22T08:12:27.619Z,92.30
2023-04-22T08:14:54.297Z,92.30
2023-04-22T08:17:21.046Z,92.20
2023-04-22T08:19:48.566Z,92.20
2023-04-22T08:22:16.640Z,92.30
2023-04-22T08:24:44.832Z,92.00
2023-04-22T08:27:13.118Z,91.50
2023-04-22T08:29:43.771Z,91.30
2023-04-22T08:32:12.389Z,91.00
2023-04-22T08:34:43.946Z,90.90
2023-04-22T08:37:13.947Z,91.00
2023-04-22T08:39:42.793Z,90.90
2023-04-22T08:42:10.200Z,90.90
2023-04-22T08:44:39.213Z,90.70
2023-04-22T08:47:06.650Z,90.50
2023-04-22T08:49:35.914Z,90.50
2023-04-22T08:52:02.896Z,90.60
2023-04-22T08:54:32.087Z,90.30
2023-04-22T08:57:00.879Z,90.20
2023-04-22T08:59:27.859Z,89.50
2023-04-22T09:01:55.998Z,89.30
2023-04-22T09:04:23.171Z,88.90
2023-04-22T09:06:50.225Z,89.30
2023-04-22T09:09:19.780Z,88.40
2023-04-22T09:11:49.579Z,88.00
2023-04-22T09:14:18.213Z,87.10
2023-04-22T09:16:51.297Z,87.40
2023-04-22T09:19:24.800Z,86.70
2023-04-22T09:21:54.098Z,86.60
2023-04-22T09:24:22.492Z,87.10
2023-04-22T09:26:52.540Z,86.60
2023-04-22T09:29:22.644Z,85.70
2023-04-22T09:31:51.334Z,85.50
2023-04-22T09:37:06.124Z,84.20
2023-04-22T09:39:36.026Z,82.80
2023-04-22T09:42:06.137Z,82.90
2023-04-22T09:44:35.663Z,82.60
2023-04-22T09:49:48.135Z,82.20
2023-04-22T09:52:25.620Z,81.10
2023-04-22T09:54:53.659Z,80.80
2023-04-22T09:57:21.406Z,81.00
2023-04-22T09:59:54.292Z,81.30
2023-04-22T10:02:29.576Z,80.60
2023-04-22T10:04:57.876Z,80.00
2023-04-22T10:07:25.220Z,79.30
2023-04-22T10:09:54.771Z,79.70
2023-04-22T10:15:05.654Z,79.00
2023-04-22T10:17:37.215Z,78.60
2023-04-22T10:20:09.770Z,78.60
2023-04-22T10:22:39.170Z,78.70
2023-04-22T10:25:23.374Z,77.90
2023-04-22T10:28:02.928Z,77.20
2023-04-22T10:30:32.350Z,75.70
2023-04-22T10:33:20.932Z,75.80
2023-04-22T10:36:06.441Z,75.70
2023-04-22T10:38:50.195Z,75.60
2023-04-22T10:41:22.302Z,74.00
2023-04-22T10:43:57.144Z,73.70
2023-04-22T10:46:35.513Z,72.60
2023-04-22T10:49:13.876Z,71.10
2023-04-22T10:51:45.668Z,71.30
2023-04-22T10:54:30.559Z,71.80
2023-04-22T10:57:14.233Z,69.00
2023-04-22T10:59:53.837Z,70.00
2023-04-22T11:02:22.495Z,69.40
2023-04-22T11:04:51.349Z,70.10
2023-04-22T11:07:21.154Z,69.50
2023-04-22T11:09:51.582Z,69.40
2023-04-22T11:12:37.181Z,69.20
2023-04-22T11:15:07.186Z,69.80
2023-04-22T11:17:36.314Z,68.40
2023-04-22T11:20:07.751Z,68.70
2023-04-22T11:22:39.046Z,67.90
2023-04-22T11:25:10.463Z,67.40
2023-04-22T11:27:40.126Z,65.90
2023-04-22T11:30:22.657Z,66.30
2023-04-22T11:32:53.142Z,64.60
2023-04-22T11:35:32.190Z,65.70
2023-04-22T11:38:03.721Z,65.60
2023-04-22T11:40:49.704Z,64.80
2023-04-22T11:43:17.541Z,64.40
2023-04-22T11:45:45.326Z,64.90
2023-04-22T11:48:15.061Z,65.60
2023-04-22T11:50:42.702Z,64.80
2023-04-22T11:53:20.277Z,62.60
2023-04-22T11:55:50.953Z,62.30
2023-04-22T11:58:27.704Z,61.60
2023-04-22T12:00:57.532Z,61.40
2023-04-22T12:03:29.396Z,62.20
2023-04-22T12:06:02.075Z,62.50
2023-04-22T12:08:37.683Z,61.70
2023-04-22T12:11:05.781Z,61.50
2023-04-22T12:13:38.582Z,61.90
2023-04-22T12:16:13.481Z,60.20
2023-04-22T12:18:55.728Z,59.10
2023-04-22T12:21:25.283Z,59.50
2023-04-22T12:24:03.015Z,58.10
2023-04-22T12:26:29.901Z,57.20
2023-04-22T12:29:00.452Z,57.50
2023-04-22T12:31:27.512Z,56.90
2023-04-22T12:33:54.360Z,56.50
2023-04-22T12:36:21.373Z,55.70
2023-04-22T12:38:48.189Z,55.50
2023-04-22T12:41:16.294Z,55.00
2023-04-22T12:43:44.350Z,54.60
2023-04-22T12:46:11.329Z,54.40
2023-04-22T12:48:39.234Z,54.10
2023-04-22T12:51:09.066Z,52.20
2023-04-22T12:53:38.961Z,51.00
2023-04-22T12:56:05.855Z,51.10
2023-04-22T12:58:33.007Z,51.90
2023-04-22T13:01:00.235Z,50.90
2023-04-22T13:03:27.149Z,50.80
2023-04-22T13:05:54.667Z,50.30
2023-04-22T13:08:21.374Z,49.80
2023-04-22T13:10:48.623Z,49.80
2023-04-22T13:13:18.896Z,49.30
2023-04-22T13:15:47.768Z,47.90
2023-04-22T13:18:15.679Z,48.20
2023-04-22T13:20:42.421Z,47.80
2023-04-22T13:23:09.080Z,47.30
2023-04-22T13:25:35.887Z,47.60
2023-04-22T13:28:04.541Z,48.10
2023-04-22T13:30:31.308Z,48.10
2023-04-22T13:32:58.047Z,46.70
2023-04-22T13:35:24.779Z,46.80
2023-04-22T13:37:51.461Z,47.30
2023-04-22T13:40:19.245Z,47.00
2023-04-22T13:42:47.132Z,47.50
2023-04-22T13:45:13.841Z,47.50
2023-04-22T13:47:44.169Z,48.00
2023-04-22T13:50:11.513Z,47.50
2023-04-22T13:52:38.285Z,47.10
2023-04-22T13:55:05.511Z,47.30
2023-04-22T13:57:32.241Z,46.10
2023-04-22T13:59:59.105Z,45.90
2023-04-22T14:02:25.905Z,47.60
2023-04-22T14:04:52.741Z,48.30
2023-04-22T14:07:19.412Z,49.50
2023-04-22T14:09:46.202Z,48.40
2023-04-22T14:12:13.134Z,47.40
2023-04-22T14:14:41.301Z,49.60
2023-04-22T14:17:08.336Z,46.60
2023-04-22T14:19:36.620Z,46.60
2023-04-22T14:22:06.163Z,45.10
2023-04-22T14:24:33.660Z,44.90
2023-04-22T14:27:01.889Z,44.80
2023-04-22T14:29:31.222Z,44.10
2023-04-22T14:31:58.747Z,44.60
2023-04-22T14:34:25.609Z,43.80
2023-04-22T14:36:52.479Z,44.10
2023-04-22T14:39:19.215Z,43.90
2023-04-22T14:41:46.005Z,43.90
2023-04-22T14:44:12.786Z,45.00
2023-04-22T14:46:39.639Z,44.20
2023-04-22T14:49:06.409Z,44.20
2023-04-22T14:51:33.219Z,43.90
2023-04-22T14:53:59.956Z,43.90
2023-04-22T14:56:26.684Z,43.80
2023-04-22T14:58:55.638Z,43.40
2023-04-22T15:01:25.202Z,43.80
2023-04-22T15:03:58.132Z,43.60
2023-04-22T15:06:25.420Z,43.20
2023-04-22T15:08:56.139Z,43.10
2023-04-22T15:11:24.205Z,43.40
2023-04-22T15:13:51.842Z,43.30
2023-04-22T15:16:18.578Z,43.80
2023-04-22T15:18:45.314Z,43.50
2023-04-22T15:21:12.082Z,43.50
2023-04-22T15:23:38.796Z,43.00
2023-04-22T15:26:06.023Z,42.60
2023-04-22T15:28:33.217Z,42.70
2023-04-22T15:31:00.786Z,43.30
2023-04-22T15:33:27.601Z,42.60
2023-04-22T15:35:54.475Z,42.20
2023-04-22T15:38:21.169Z,42.80
2023-04-22T15:40:47.843Z,42.40
2023-04-22T15:43:15.555Z,42.70
2023-04-22T15:45:44.636Z,42.60
2023-04-22T15:48:13.528Z,42.50
2023-04-22T15:50:40.505Z,42.20
2023-04-22T15:53:07.292Z,43.10
2023-04-22T15:55:34.014Z,43.40
2023-04-22T15:58:00.716Z,43.60
2023-04-22T16:00:27.538Z,44.00
2023-04-22T16:02:54.507Z,44.50
2023-04-22T16:05:21.706Z,43.80
2023-04-22T16:07:49.423Z,44.30
2023-04-22T16:10:17.664Z,43.60
2023-04-22T16:12:45.177Z,43.40
2023-04-22T16:15:13.033Z,43.80
2023-04-22T16:17:39.980Z,43.60
2023-04-22T16:20:08.787Z,43.40
2023-04-22T16:22:35.452Z,43.10
2023-04-22T16:25:03.261Z,43.10
2023-04-22T16:27:30.054Z,43.10
2023-04-22T16:29:59.759Z,42.70
2023-04-22T16:32:26.487Z,43.10
2023-04-22T16:34:53.237Z,43.30
2023-04-22T16:37:19.971Z,43.40
2023-04-22T16:39:46.680Z,43.40
2023-04-22T16:42:13.490Z,43.30
2023-04-22T16:44:40.244Z,43.20
2023-04-22T16:47:06.945Z,43.10
2023-04-22T16:49:33.872Z,43.40
2023-04-22T16:52:00.543Z,43.70
2023-04-22T16:54:27.234Z,43.80
2023-04-22T16:56:55.316Z,43.40
2023-04-22T16:59:23.586Z,43.60
2023-04-22T17:01:52.210Z,43.80
2023-04-22T17:04:19.223Z,43.90
2023-04-22T17:06:46.040Z,44.10
2023-04-22T17:09:12.812Z,44.00
2023-04-22T17:11:39.764Z,44.20
2023-04-22T17:14:06.460Z,44.60
2023-04-22T17:16:33.231Z,45.40
2023-04-22T17:18:59.909Z,45.20
2023-04-22T17:21:26.644Z,45.20
2023-04-22T17:23:53.390Z,45.50
2023-04-22T17:26:20.159Z,45.60
2023-04-22T17:28:47.182Z,45.90
2023-04-22T17:31:14.992Z,46.40
2023-04-22T17:33:41.746Z,46.20
2023-04-22T17:36:09.753Z,46.50
2023-04-22T17:38:37.570Z,46.90
2023-04-22T17:41:05.182Z,46.90
2023-04-22T17:43:33.446Z,46.90
2023-04-22T17:46:03.035Z,47.30
2023-04-22T17:48:29.703Z,47.40
2023-04-22T17:50:56.379Z,47.50
2023-04-22T17:53:23.086Z,47.70
2023-04-22T17:55:49.864Z,47.60
2023-04-22T17:58:19.668Z,47.90
2023-04-22T18:00:48.532Z,48.20
2023-04-22T18:03:15.594Z,48.40
2023-04-22T18:05:42.478Z,48.70
2023-04-22T18:08:10.370Z,48.80
2023-04-22T18:10:38.076Z,49.00
2023-04-22T18:13:06.130Z,49.20
2023-04-22T18:15:32.805Z,49.50
2023-04-22T18:17:59.547Z,49.60
2023-04-22T18:20:26.280Z,49.60
2023-04-22T18:22:53.136Z,49.60
2023-04-22T18:25:19.962Z,49.90
2023-04-22T18:27:46.584Z,49.80
2023-04-22T18:30:13.496Z,50.50
2023-04-22T18:32:40.284Z,50.10
2023-04-22T18:35:07.654Z,50.20
2023-04-22T18:37:35.480Z,50.50
2023-04-22T18:40:02.777Z,50.70
2023-04-22T18:42:30.697Z,50.80
2023-04-22T18:45:01.875Z,50.70
2023-04-22T18:47:34.435Z,51.00
2023-04-22T18:50:01.204Z,51.20
2023-04-22T18:52:27.941Z,51.30
2023-04-22T18:54:54.724Z,51.40
2023-04-22T18:57:21.479Z,51.50
2023-04-22T18:59:48.329Z,51.60
2023-04-22T19:02:15.097Z,51.70
2023-04-22T19:04:42.163Z,51.90
2023-04-22T19:07:09.254Z,51.90
2023-04-22T19:09:36.034Z,52.10
2023-04-22T19:12:03.006Z,52.40
2023-04-22T19:14:29.810Z,52.60
2023-04-22T19:16:57.597Z,52.80
2023-04-22T19:19:24.259Z,52.90
2023-04-22T19:21:51.067Z,53.20
2023-04-22T19:24:17.746Z,53.10
2023-04-22T19:26:45.539Z,53.20
2023-04-22T19:29:13.546Z,53.20
2023-04-22T19:31:40.347Z,53.10
2023-04-22T19:34:07.141Z,53.90
2023-04-22T19:36:33.853Z,53.50
2023-04-22T19:39:00.636Z,53.50
2023-04-22T19:41:27.356Z,53.70
2023-04-22T19:43:54.141Z,53.70
2023-04-22T19:46:20.847Z,53.70
2023-04-22T19:48:49.063Z,53.80
2023-04-22T19:51:16.099Z,53.90
2023-04-22T19:53:47.369Z,54.30
2023-04-22T19:56:15.792Z,54.20
2023-04-22T19:58:44.693Z,54.50
2023-04-22T20:01:14.557Z,54.60
2023-04-22T20:03:44.343Z,54.80
2023-04-22T20:06:22.719Z,54.80
2023-04-22T20:08:55.391Z,54.80
2023-04-22T20:11:23.735Z,54.90
2023-04-22T20:13:53.591Z,55.00
2023-04-22T20:16:21.749Z,54.90
2023-04-22T20:18:53.617Z,55.10
2023-04-22T20:21:20.353Z,55.10
2023-04-22T20:23:49.631Z,55.20
2023-04-22T20:26:21.730Z,55.20
2023-04-22T20:28:50.858Z,55.50
2023-04-22T20:31:18.734Z,55.60
2023-04-22T20:33:45.691Z,55.90
2023-04-22T20:36:13.806Z,56.00
2023-04-22T20:38:42.468Z,55.90
2023-04-22T20:41:09.344Z,56.20
2023-04-22T20:43:36.145Z,56.20
2023-04-22T20:46:04.256Z,56.60
2023-04-22T20:48:31.037Z,56.60
2023-04-22T20:50:59.241Z,56.70
2023-04-22T20:53:29.460Z,56.60
2023-04-22T20:55:59.719Z,56.50
2023-04-22T20:58:27.827Z,56.60
2023-04-22T21:00:54.605Z,56.70
2023-04-22T21:03:22.836Z,56.50
2023-04-22T21:05:50.155Z,56.70
2023-04-22T21:08:19.878Z,56.90
2023-04-22T21:10:47.474Z,57.00
2023-04-22T21:13:14.404Z,56.90
2023-04-22T21:15:49.701Z,56.90
2023-04-22T21:18:21.286Z,57.10
2023-04-22T21:20:53.710Z,57.20
2023-04-22T21:23:24.178Z,57.30
2023-04-22T21:25:53.120Z,57.60
2023-04-22T21:28:21.820Z,57.40
2023-04-22T21:30:48.927Z,57.70
2023-04-22T21:33:19.094Z,57.80
2023-04-22T21:35:51.086Z,57.90
2023-04-22T21:38:18.993Z,57.90
2023-04-22T21:40:51.757Z,58.10
2023-04-22T21:43:18.494Z,58.30
2023-04-22T21:45:47.187Z,58.40
2023-04-22T21:48:13.893Z,58.50
2023-04-22T21:50:40.636Z,58.50
2023-04-22T21:53:08.806Z,58.60
2023-04-22T21:55:35.556Z,58.80
2023-04-22T21:58:02.208Z,58.80
2023-04-22T22:00:31.112Z,58.90
2023-04-22T22:03:02.734Z,58.80
2023-04-22T22:05:32.561Z,59.00
2023-04-22T22:08:01.564Z,59.10
2023-04-22T22:10:28.632Z,59.20
2023-04-22T22:12:55.398Z,59.20
2023-04-22T22:15:22.218Z,59.30
2023-04-22T22:17:49.649Z,59.40
2023-04-22T22:20:16.863Z,59.60
2023-04-22T22:22:45.164Z,59.60
2023-04-22T22:25:14.557Z,59.60
2023-04-22T22:27:44.157Z,60.00
2023-04-22T22:30:11.662Z,60.00
2023-04-22T22:32:40.055Z,60.00
2023-04-22T22:35:07.129Z,60.40
2023-04-22T22:37:35.365Z,60.30
2023-04-22T22:40:02.195Z,60.40
2023-04-22T22:42:31.482Z,60.30
2023-04-22T22:45:07.548Z,60.30
2023-04-22T22:47:40.070Z,61.20
2023-04-22T22:50:11.053Z,60.80
2023-04-22T22:52:50.729Z,60.80
2023-04-22T22:55:18.621Z,61.00
2023-04-22T22:57:47.897Z,61.30
2023-04-22T23:00:16.076Z,61.30
2023-04-22T23:02:42.903Z,61.40
2023-04-22T23:05:10.866Z,61.60
2023-04-22T23:07:37.709Z,61.50
2023-04-22T23:10:04.850Z,62.00
2023-04-22T23:12:31.524Z,61.90
2023-04-22T23:14:58.183Z,62.00
2023-04-22T23:17:25.041Z,62.00
2023-04-22T23:19:54.317Z,62.20
2023-04-22T23:22:21.283Z,62.50
2023-04-22T23:24:48.436Z,62.50
2023-04-22T23:27:16.582Z,62.60
2023-04-22T23:29:44.916Z,62.70
2023-04-22T23:32:15.597Z,63.00
2023-04-22T23:34:46.438Z,63.10
2023-04-22T23:37:15.429Z,63.20
2023-04-22T23:39:43.491Z,63.40
2023-04-22T23:42:14.030Z,63.40
2023-04-22T23:44:45.386Z,63.60
2023-04-22T23:47:14.268Z,63.60
2023-04-22T23:49:40.959Z,63.70
2023-04-22T23:52:07.687Z,64.30
2023-04-22T23:54:34.667Z,64.70
2023-04-22T23:57:01.544Z,64.20
2023-04-22T23:59:28.498Z,64.30
